Time;durP1;ratioP1;P1;durP2;ratioP2;P2;SDS_P1;SDS_P2;PMS_P1;PMS_P2;Temp;Humidity;BMP_temperature;BMP_pressure;BME280_temperature;BME280_humidity;BME280_pressure;Samples;Min_cycle;Max_cycle;Signal;HPM_P1;HPM_P2
2022/08/30 00:03:19;;;;;;;6.72;3.67;;;27.40;77.50;;;;;;6369233;22;20447;-86
2022/08/30 00:05:45;;;;;;;4.25;3.85;;;27.40;77.50;;;;;;6369289;22;20005;-86
2022/08/30 00:08:12;;;;;;;10.70;4.55;;;27.30;77.50;;;;;;6340606;22;20009;-86
2022/08/30 00:10:39;;;;;;;6.68;4.07;;;27.30;77.80;;;;;;6368663;22;20002;-86
2022/08/30 00:13:07;;;;;;;5.03;4.25;;;27.30;77.70;;;;;;6368687;22;20077;-84
2022/08/30 00:15:33;;;;;;;7.50;3.90;;;27.30;77.80;;;;;;6366676;22;20579;-86
2022/08/30 00:17:59;;;;;;;4.65;3.50;;;27.30;77.70;;;;;;6368210;22;20366;-86
2022/08/30 00:20:28;;;;;;;7.00;4.03;;;27.30;77.70;;;;;;6368670;22;20446;-86
2022/08/30 00:22:54;;;;;;;5.43;3.23;;;27.30;77.60;;;;;;6340891;22;20007;-86
2022/08/30 00:25:21;;;;;;;5.45;3.83;;;27.30;77.50;;;;;;6340001;22;20063;-86
2022/08/30 00:27:47;;;;;;;5.40;3.95;;;27.30;77.40;;;;;;6368715;22;20003;-86
2022/08/30 00:30:14;;;;;;;4.90;3.67;;;27.30;77.20;;;;;;6369218;22;20006;-84
2022/08/30 00:32:40;;;;;;;4.60;3.90;;;27.30;77.20;;;;;;6368515;22;20033;-84
2022/08/30 00:35:07;;;;;;;6.18;3.80;;;27.30;77.20;;;;;;6368555;22;19998;-83
2022/08/30 00:37:33;;;;;;;5.10;3.63;;;27.20;76.90;;;;;;6369604;22;20327;-84
2022/08/30 00:39:59;;;;;;;6.40;3.97;;;27.20;77.10;;;;;;6369234;22;20023;-85
2022/08/30 00:42:25;;;;;;;4.15;3.05;;;27.20;77.10;;;;;;6368484;22;20007;-85
2022/08/30 00:44:51;;;;;;;5.57;3.88;;;27.20;77.10;;;;;;6371988;22;20069;-84
2022/08/30 00:47:17;;;;;;;4.18;3.72;;;27.20;77.10;;;;;;6370857;22;20077;-84
2022/08/30 00:49:47;;;;;;;6.43;3.28;;;27.20;77.10;;;;;;6343152;22;20082;-84
2022/08/30 00:52:15;;;;;;;4.72;2.90;;;27.20;77.00;;;;;;6371012;22;20052;-82
2022/08/30 00:54:44;;;;;;;3.35;2.67;;;27.20;77.00;;;;;;6371057;22;19999;-83
2022/08/30 00:57:12;;;;;;;10.60;3.72;;;27.20;76.80;;;;;;6370353;22;20523;-83
2022/08/30 00:59:38;;;;;;;5.18;3.28;;;27.20;76.70;;;;;;6371197;22;19998;-82
2022/08/30 01:02:05;;;;;;;3.75;3.20;;;27.20;76.80;;;;;;6370233;22;20104;-83
2022/08/30 01:04:32;;;;;;;3.58;2.88;;;27.20;77.00;;;;;;6370411;22;20434;-83
2022/08/30 01:06:59;;;;;;;3.50;3.00;;;27.20;77.00;;;;;;6370845;22;20003;-83
2022/08/30 01:09:25;;;;;;;4.20;2.95;;;27.10;77.30;;;;;;6370932;22;20009;-82
2022/08/30 01:11:51;;;;;;;4.38;3.20;;;27.10;76.80;;;;;;6370359;22;20320;-82
2022/08/30 01:14:20;;;;;;;6.88;3.40;;;27.10;77.10;;;;;;6369203;22;20089;-82
2022/08/30 01:16:46;;;;;;;4.32;2.97;;;27.00;76.70;;;;;;6370562;22;19998;-82
2022/08/30 01:19:39;;;;;;;3.38;3.08;;;27.10;76.70;;;;;;6370764;22;20052;-83
2022/08/30 01:22:42;;;;;;;5.10;3.67;;;27.10;76.60;;;;;;6354475;22;20084;-83
2022/08/30 01:25:10;;;;;;;4.72;3.25;;;27.00;76.60;;;;;;6282073;22;20006;-83
2022/08/30 01:27:44;;;;;;;3.60;2.88;;;27.10;76.60;;;;;;6370659;22;20033;-83
2022/08/30 01:30:11;;;;;;;4.75;3.45;;;27.10;76.50;;;;;;6370362;22;20002;-83
2022/08/30 01:32:43;;;;;;;4.70;3.25;;;27.00;76.40;;;;;;6370489;22;19994;-83
2022/08/30 01:35:10;;;;;;;4.35;2.92;;;27.10;76.40;;;;;;6370568;22;20005;-84
2022/08/30 01:37:37;;;;;;;6.35;3.45;;;27.10;76.30;;;;;;6370448;22;20078;-86
2022/08/30 01:40:05;;;;;;;6.70;3.00;;;27.00;76.30;;;;;;6370694;22;20659;-85
2022/08/30 01:42:31;;;;;;;3.78;2.97;;;27.10;76.20;;;;;;6342888;22;20388;-85
2022/08/30 01:44:56;;;;;;;4.88;3.22;;;27.00;76.10;;;;;;6370424;22;20025;-85
2022/08/30 01:47:22;;;;;;;6.47;3.58;;;27.00;76.00;;;;;;6342178;22;20006;-86
2022/08/30 01:49:49;;;;;;;3.33;2.83;;;26.90;76.10;;;;;;6370442;22;19998;-86
2022/08/30 01:52:16;;;;;;;5.03;2.92;;;27.00;76.20;;;;;;6370073;22;20002;-87
2022/08/30 01:54:43;;;;;;;3.33;2.60;;;27.00;76.20;;;;;;6370036;22;20520;-87
2022/08/30 01:57:13;;;;;;;3.90;2.80;;;27.00;76.10;;;;;;6370465;22;20006;-87
2022/08/30 01:59:42;;;;;;;3.53;3.20;;;27.00;76.10;;;;;;6342245;22;20003;-87
2022/08/30 02:02:09;;;;;;;3.27;2.90;;;27.00;76.10;;;;;;6370156;22;20052;-87
2022/08/30 02:04:35;;;;;;;5.72;2.92;;;27.00;76.10;;;;;;6370040;22;20455;-86
2022/08/30 02:07:02;;;;;;;5.80;3.10;;;27.00;76.00;;;;;;6371215;22;20005;-85
2022/08/30 02:09:28;;;;;;;3.78;3.15;;;26.90;76.00;;;;;;6369386;22;20038;-85
2022/08/30 02:11:54;;;;;;;3.72;2.92;;;26.90;76.00;;;;;;6369651;22;20005;-86
2022/08/30 02:14:19;;;;;;;6.78;2.70;;;26.90;76.00;;;;;;6336647;22;20014;-86
2022/08/30 02:16:46;;;;;;;4.13;2.90;;;26.90;76.00;;;;;;6338188;22;20413;-87
2022/08/30 02:19:11;;;;;;;3.63;3.05;;;26.80;75.90;;;;;;6336862;22;19994;-86
2022/08/30 02:21:37;;;;;;;3.67;2.80;;;26.80;76.00;;;;;;6338419;22;20003;-86
2022/08/30 02:24:03;;;;;;;3.92;2.95;;;26.90;76.10;;;;;;6337834;22;19998;-87
2022/08/30 02:26:29;;;;;;;3.90;3.10;;;26.80;76.20;;;;;;6338017;22;20370;-85
2022/08/30 02:28:55;;;;;;;3.53;3.22;;;26.80;76.10;;;;;;6338452;22;20098;-86
2022/08/30 02:31:21;;;;;;;4.57;3.00;;;26.80;76.10;;;;;;6337995;22;19999;-82
2022/08/30 02:33:50;;;;;;;4.80;3.20;;;26.80;76.20;;;;;;6337632;22;20040;-83
2022/08/30 02:36:16;;;;;;;5.28;3.10;;;26.80;76.40;;;;;;6338739;22;20073;-83
2022/08/30 02:38:42;;;;;;;3.47;3.13;;;26.80;76.40;;;;;;6337600;22;19999;-83
2022/08/30 02:41:08;;;;;;;3.70;3.15;;;26.80;76.40;;;;;;6338482;22;20329;-83
2022/08/30 02:43:33;;;;;;;4.18;3.10;;;26.80;76.40;;;;;;6337881;22;19999;-83
2022/08/30 02:45:59;;;;;;;4.22;3.70;;;26.80;76.30;;;;;;6338353;22;20101;-83
2022/08/30 02:48:25;;;;;;;4.70;3.13;;;26.80;76.30;;;;;;6337292;22;20080;-83
2022/08/30 02:50:52;;;;;;;6.13;3.33;;;26.70;76.80;;;;;;6335446;22;20006;-83
2022/08/30 02:53:19;;;;;;;3.85;3.00;;;26.70;76.30;;;;;;6335851;22;20003;-82
2022/08/30 02:55:46;;;;;;;3.65;3.22;;;26.70;76.40;;;;;;6338112;22;19995;-82
2022/08/30 02:58:12;;;;;;;5.25;4.70;;;26.60;76.80;;;;;;6336982;22;19998;-81
2022/08/30 03:00:38;;;;;;;5.45;4.32;;;26.50;77.80;;;;;;6338350;22;19994;-82
2022/08/30 03:03:06;;;;;;;7.05;4.60;;;26.40;78.10;;;;;;6338773;22;20003;-83
2022/08/30 03:05:32;;;;;;;6.90;4.88;;;26.20;78.40;;;;;;6336951;22;20003;-83
2022/08/30 03:07:58;;;;;;;8.77;4.30;;;26.00;79.40;;;;;;6336164;22;20014;-81
2022/08/30 03:10:26;;;;;;;5.88;3.97;;;25.90;79.40;;;;;;6336119;22;20063;-82
2022/08/30 03:12:53;;;;;;;4.65;4.00;;;25.80;79.90;;;;;;6338076;22;19999;-84
2022/08/30 03:15:19;;;;;;;6.68;3.35;;;25.80;80.00;;;;;;6369559;22;20006;-84
2022/08/30 03:17:45;;;;;;;7.85;4.65;;;25.90;79.60;;;;;;6368626;22;20002;-83
2022/08/30 03:20:11;;;;;;;4.82;3.92;;;25.70;80.50;;;;;;6369463;22;20124;-83
2022/08/30 03:22:38;;;;;;;3.70;2.90;;;25.60;80.30;;;;;;6369703;22;20424;-83
2022/08/30 03:25:04;;;;;;;7.55;3.92;;;25.70;80.10;;;;;;6369473;22;19998;-83
2022/08/30 03:27:30;;;;;;;4.90;3.50;;;25.80;80.10;;;;;;6369136;22;20010;-82
2022/08/30 03:29:56;;;;;;;5.07;3.88;;;25.90;80.00;;;;;;6369237;22;20474;-83
2022/08/30 03:32:22;;;;;;;3.85;3.08;;;25.90;79.90;;;;;;6341567;22;20003;-84
2022/08/30 03:34:49;;;;;;;4.43;3.00;;;26.00;79.50;;;;;;6369642;22;19999;-83
2022/08/30 03:37:14;;;;;;;5.65;3.20;;;26.00;79.50;;;;;;6369267;22;20417;-84
2022/08/30 03:39:40;;;;;;;3.92;2.95;;;26.00;79.30;;;;;;6340436;22;20010;-84
2022/08/30 03:42:06;;;;;;;6.00;2.85;;;26.10;79.20;;;;;;6369634;22;20002;-84
2022/08/30 03:44:32;;;;;;;4.20;2.90;;;26.10;79.20;;;;;;6369307;22;19998;-83
2022/08/30 03:46:57;;;;;;;4.78;3.05;;;26.20;79.00;;;;;;6369807;22;20621;-85
2022/08/30 03:49:23;;;;;;;5.20;3.25;;;26.20;78.80;;;;;;6369409;22;20022;-84
2022/08/30 03:51:49;;;;;;;4.93;3.08;;;26.10;78.60;;;;;;6368632;22;20011;-84
2022/08/30 03:54:15;;;;;;;3.95;3.55;;;26.10;78.60;;;;;;6368638;22;20005;-84
2022/08/30 03:56:41;;;;;;;3.72;3.00;;;26.10;78.60;;;;;;6368767;22;20021;-83
2022/08/30 03:59:07;;;;;;;6.63;3.63;;;26.10;78.60;;;;;;6367857;22;20396;-83
2022/08/30 04:01:33;;;;;;;3.83;3.13;;;26.20;78.70;;;;;;6369567;22;20002;-82
2022/08/30 04:03:58;;;;;;;5.03;3.13;;;26.20;78.60;;;;;;6369044;22;20009;-85
2022/08/30 04:06:24;;;;;;;6.00;3.60;;;26.20;78.50;;;;;;6369675;22;20006;-88
2022/08/30 04:08:50;;;;;;;3.75;3.30;;;26.20;78.50;;;;;;6368051;22;19998;-86
2022/08/30 04:11:16;;;;;;;7.15;4.35;;;26.20;78.40;;;;;;6367803;22;19998;-86
2022/08/30 04:13:42;;;;;;;6.85;3.55;;;26.10;78.30;;;;;;6368527;22;20045;-85
2022/08/30 04:16:09;;;;;;;6.20;3.97;;;26.10;78.50;;;;;;6369133;22;20328;-90
2022/08/30 04:18:35;;;;;;;5.50;4.28;;;26.00;78.70;;;;;;6340987;22;20006;-85
2022/08/30 04:21:02;;;;;;;4.40;3.67;;;25.90;79.10;;;;;;6369543;22;20458;-85
2022/08/30 04:23:28;;;;;;;7.18;3.78;;;25.90;79.10;;;;;;6368893;22;20009;-86
2022/08/30 04:25:54;;;;;;;3.85;3.30;;;25.80;79.20;;;;;;6369584;22;20085;-83
2022/08/30 04:28:20;;;;;;;5.30;4.18;;;25.90;79.30;;;;;;6369035;22;20002;-84
2022/08/30 04:30:46;;;;;;;7.97;3.63;;;25.90;79.50;;;;;;6368850;22;20258;-84
2022/08/30 04:33:14;;;;;;;8.30;4.40;;;25.70;79.70;;;;;;6369425;22;19998;-84
2022/08/30 04:35:42;;;;;;;4.90;3.53;;;25.70;79.80;;;;;;6339080;22;20002;-87
2022/08/30 04:38:08;;;;;;;5.20;3.78;;;25.70;79.70;;;;;;6338773;22;19999;-87
2022/08/30 04:40:35;;;;;;;7.20;5.05;;;25.70;79.90;;;;;;6366363;22;20014;-88
2022/08/30 04:43:01;;;;;;;5.68;4.30;;;25.60;79.90;;;;;;6365250;22;20006;-88
2022/08/30 04:45:26;;;;;;;4.32;3.92;;;25.60;80.20;;;;;;6364741;22;20013;-86
2022/08/30 04:47:52;;;;;;;4.80;3.50;;;25.50;80.10;;;;;;6368216;22;20018;-87
2022/08/30 04:50:19;;;;;;;7.38;3.85;;;25.50;80.10;;;;;;6367942;22;20059;-87
2022/08/30 04:52:45;;;;;;;4.22;3.30;;;25.50;80.20;;;;;;6369043;22;19998;-84
2022/08/30 04:55:11;;;;;;;4.95;3.85;;;25.50;80.10;;;;;;6367917;22;20048;-82
2022/08/30 04:57:39;;;;;;;5.72;3.65;;;25.60;80.40;;;;;;6368765;22;20025;-82
2022/08/30 05:00:08;;;;;;;5.30;3.38;;;25.60;80.10;;;;;;6367049;22;19999;-81
2022/08/30 05:02:33;;;;;;;5.95;4.35;;;25.70;80.00;;;;;;6368140;22;20365;-83
2022/08/30 05:07:44;;;;;;;7.35;4.60;;;25.70;79.70;;;;;;6368622;22;20017;-82
2022/08/30 05:10:10;;;;;;;5.18;3.40;;;25.70;79.90;;;;;;6368213;22;20002;-81
2022/08/30 05:12:36;;;;;;;6.97;3.30;;;25.60;79.80;;;;;;6368724;22;19998;-79
2022/08/30 05:15:02;;;;;;;4.25;3.67;;;25.70;80.10;;;;;;6368096;22;20014;-80
2022/08/30 05:17:28;;;;;;;6.50;4.63;;;25.60;80.40;;;;;;6368751;22;19995;-81
2022/08/30 05:19:53;;;;;;;6.10;4.15;;;25.60;80.60;;;;;;6369511;22;19998;-81
2022/08/30 05:22:19;;;;;;;4.50;3.33;;;25.60;80.50;;;;;;6368789;22;20021;-84
2022/08/30 05:24:45;;;;;;;4.45;3.97;;;25.60;80.40;;;;;;6368770;22;19999;-87
2022/08/30 05:27:10;;;;;;;6.35;3.53;;;25.60;80.80;;;;;;6339653;22;20332;-86
2022/08/30 05:29:36;;;;;;;6.10;4.80;;;25.60;80.80;;;;;;6366787;22;19998;-86
2022/08/30 05:32:02;;;;;;;5.38;3.80;;;25.50;80.90;;;;;;6370479;22;20423;-86
2022/08/30 05:34:31;;;;;;;5.15;3.65;;;25.50;80.90;;;;;;6371540;22;20005;-87
2022/08/30 05:36:56;;;;;;;7.80;3.97;;;25.50;80.70;;;;;;6370814;22;19998;-87
2022/08/30 05:39:22;;;;;;;6.45;4.35;;;25.60;80.60;;;;;;6371300;22;20493;-87
2022/08/30 05:41:48;;;;;;;8.02;4.15;;;25.60;80.40;;;;;;6371563;22;19998;-87
2022/08/30 05:44:13;;;;;;;7.15;4.72;;;25.70;80.30;;;;;;6371760;22;20412;-87
2022/08/30 05:46:44;;;;;;;7.95;4.53;;;25.70;80.50;;;;;;6373003;22;20007;-86
2022/08/30 05:49:10;;;;;;;8.02;3.90;;;25.60;80.90;;;;;;6372140;22;19998;-86
2022/08/30 05:51:39;;;;;;;11.10;4.18;;;25.50;80.90;;;;;;6371255;22;20008;-86
2022/08/30 05:54:05;;;;;;;6.67;4.67;;;25.60;81.00;;;;;;6371788;22;20424;-86
2022/08/30 05:56:34;;;;;;;5.70;3.92;;;25.60;81.00;;;;;;6372187;22;19994;-86
2022/08/30 05:59:00;;;;;;;4.97;3.67;;;25.60;81.00;;;;;;6371193;22;20354;-85
2022/08/30 06:01:27;;;;;;;5.57;4.00;;;25.60;81.20;;;;;;6370609;22;20837;-85
2022/08/30 06:03:54;;;;;;;5.00;3.80;;;25.60;81.10;;;;;;6371044;22;20424;-85
2022/08/30 06:06:21;;;;;;;4.20;3.47;;;25.60;81.20;;;;;;6370633;22;20079;-85
2022/08/30 06:08:48;;;;;;;4.93;3.55;;;25.70;80.90;;;;;;6370692;22;20033;-85
2022/08/30 06:11:16;;;;;;;4.03;3.40;;;25.80;80.80;;;;;;6371360;22;19998;-87
2022/08/30 06:13:42;;;;;;;3.28;2.88;;;25.90;80.60;;;;;;6371178;22;20010;-88
2022/08/30 06:16:11;;;;;;;3.80;2.88;;;26.00;80.40;;;;;;6371236;22;19995;-87
2022/08/30 06:18:37;;;;;;;7.13;3.53;;;26.10;80.00;;;;;;6371547;22;19995;-88
2022/08/30 06:21:03;;;;;;;5.70;3.28;;;26.20;79.70;;;;;;6371331;22;20006;-84
2022/08/30 06:23:29;;;;;;;4.45;3.42;;;26.30;79.40;;;;;;6343172;22;20006;-84
2022/08/30 06:25:55;;;;;;;7.40;2.88;;;26.30;79.10;;;;;;6369907;22;19998;-86
2022/08/30 06:28:21;;;;;;;4.68;3.47;;;26.30;78.80;;;;;;6342502;22;20097;-86
2022/08/30 06:30:47;;;;;;;3.72;3.35;;;26.40;78.60;;;;;;6370788;22;20081;-88
2022/08/30 06:33:13;;;;;;;7.00;3.75;;;26.40;78.40;;;;;;6372296;22;20026;-87
2022/08/30 06:35:38;;;;;;;5.13;3.50;;;26.50;78.30;;;;;;6343570;22;20002;-89
2022/08/30 06:38:04;;;;;;;4.95;3.65;;;26.50;78.30;;;;;;6371585;22;19998;-85
2022/08/30 06:40:30;;;;;;;8.43;3.58;;;26.50;78.20;;;;;;6370370;22;19999;-85
2022/08/30 06:42:56;;;;;;;5.80;3.20;;;26.60;78.10;;;;;;6371372;22;20028;-84
2022/08/30 06:45:22;;;;;;;4.00;3.30;;;26.60;78.00;;;;;;6370497;22;20420;-83
2022/08/30 06:47:48;;;;;;;4.03;2.90;;;26.60;77.70;;;;;;6370140;22;20048;-85
2022/08/30 06:50:15;;;;;;;3.10;2.75;;;26.70;77.30;;;;;;6342359;22;20033;-84
2022/08/30 06:52:44;;;;;;;3.20;2.70;;;26.70;77.00;;;;;;6371019;22;19994;-84
2022/08/30 06:55:12;;;;;;;3.40;2.60;;;26.70;76.60;;;;;;6370376;22;19994;-83
2022/08/30 06:57:38;;;;;;;4.38;2.90;;;26.70;76.40;;;;;;6370852;22;20069;-85
2022/08/30 07:00:07;;;;;;;2.38;2.17;;;26.80;76.30;;;;;;6370125;22;20332;-84
2022/08/30 07:02:36;;;;;;;3.28;2.63;;;26.80;76.20;;;;;;6365740;22;20006;-85
2022/08/30 07:05:03;;;;;;;3.95;2.50;;;26.80;76.00;;;;;;6369175;22;20008;-84
2022/08/30 07:07:28;;;;;;;4.93;3.10;;;26.80;75.60;;;;;;6368573;22;19998;-85
2022/08/30 07:09:54;;;;;;;4.47;2.65;;;26.80;74.20;;;;;;6369631;22;20003;-85
2022/08/30 07:12:20;;;;;;;3.25;2.42;;;26.70;74.80;;;;;;6369490;22;20009;-84
2022/08/30 07:14:46;;;;;;;5.25;2.90;;;26.60;75.10;;;;;;6368451;22;20294;-84
2022/08/30 07:19:56;;;;;;;3.22;2.38;;;26.40;75.80;;;;;;6369248;22;20028;-84
2022/08/30 07:22:21;;;;;;;5.53;3.35;;;26.50;75.90;;;;;;6341218;22;20003;-84
2022/08/30 07:24:47;;;;;;;5.25;3.05;;;26.50;76.20;;;;;;6368348;22;20709;-84
2022/08/30 07:27:14;;;;;;;3.38;2.90;;;26.60;76.70;;;;;;6369439;22;20011;-84
2022/08/30 07:29:40;;;;;;;4.00;3.20;;;26.60;76.50;;;;;;6341387;22;20002;-85
2022/08/30 07:32:06;;;;;;;4.00;2.97;;;26.70;76.60;;;;;;6370320;22;20009;-86
2022/08/30 07:34:32;;;;;;;3.80;2.65;;;26.70;76.50;;;;;;6369817;22;20078;-84
2022/08/30 07:36:58;;;;;;;3.55;3.10;;;26.70;76.50;;;;;;6369229;22;20001;-84
2022/08/30 07:39:24;;;;;;;4.47;2.83;;;26.70;75.40;;;;;;6368484;22;19999;-84
2022/08/30 07:41:50;;;;;;;3.90;2.70;;;26.70;75.40;;;;;;6341500;22;20378;-85
2022/08/30 07:44:16;;;;;;;5.20;3.45;;;26.70;75.50;;;;;;6368619;22;20081;-85
2022/08/30 07:46:42;;;;;;;2.95;2.60;;;26.50;75.70;;;;;;6369580;22;20002;-87
2022/08/30 07:49:10;;;;;;;5.10;2.80;;;26.60;75.90;;;;;;6370351;22;19998;-86
2022/08/30 07:51:36;;;;;;;7.05;2.80;;;26.50;75.50;;;;;;6340892;22;20006;-85
2022/08/30 07:54:03;;;;;;;5.55;2.67;;;26.60;75.70;;;;;;6369636;22;19998;-85
2022/08/30 07:56:28;;;;;;;2.35;2.15;;;26.70;75.60;;;;;;6370525;22;20014;-84
2022/08/30 07:58:54;;;;;;;2.67;2.47;;;26.80;75.40;;;;;;6367897;22;20364;-85
2022/08/30 08:01:21;;;;;;;6.40;3.55;;;26.80;75.30;;;;;;6367994;22;20005;-87
2022/08/30 08:03:49;;;;;;;3.58;2.97;;;26.90;74.50;;;;;;6341553;22;20002;-87
2022/08/30 08:06:16;;;;;;;2.50;2.30;;;26.90;75.00;;;;;;6370313;22;20013;-85
2022/08/30 08:08:44;;;;;;;6.13;3.40;;;26.90;75.10;;;;;;6370115;22;20002;-84
2022/08/30 08:11:21;;;;;;;3.70;2.72;;;27.00;75.50;;;;;;6342940;22;20002;-88
2022/08/30 08:13:49;;;;;;;5.47;2.70;;;27.10;75.30;;;;;;6369804;22;20059;-88
2022/08/30 08:16:15;;;;;;;3.40;3.10;;;27.10;75.30;;;;;;6342472;22;20006;-87
2022/08/30 08:18:40;;;;;;;2.65;2.20;;;27.20;74.70;;;;;;6371084;22;20619;-88
2022/08/30 08:21:06;;;;;;;4.15;2.60;;;27.30;74.50;;;;;;6371518;22;20051;-88
2022/08/30 08:23:33;;;;;;;4.63;2.85;;;27.40;74.30;;;;;;6370708;22;20034;-89
2022/08/30 08:25:59;;;;;;;5.97;2.65;;;27.50;74.30;;;;;;6370289;22;20008;-87
2022/08/30 08:28:25;;;;;;;3.20;2.42;;;27.60;74.20;;;;;;6341600;22;20014;-87
2022/08/30 08:30:51;;;;;;;3.35;2.47;;;27.80;73.80;;;;;;6370413;22;20298;-87
2022/08/30 08:33:18;;;;;;;4.68;2.58;;;27.90;73.50;;;;;;6370943;22;20005;-87
2022/08/30 08:35:44;;;;;;;2.90;1.98;;;28.00;73.20;;;;;;6369927;22;20099;-87
2022/08/30 08:38:10;;;;;;;3.88;2.30;;;28.10;73.10;;;;;;6369769;22;20002;-86
2022/08/30 08:41:13;;;;;;;2.85;2.47;;;28.20;73.00;;;;;;6369278;22;19998;-87
2022/08/30 08:43:40;;;;;;;5.93;2.63;;;28.20;72.60;;;;;;6370528;22;20073;-89
2022/08/30 08:46:51;;;;;;;10.88;3.05;;;28.30;72.70;;;;;;6370837;22;19999;-87
2022/08/30 08:49:16;;;;;;;6.78;2.88;;;28.30;72.30;;;;;;6331388;22;20017;-87
2022/08/30 08:54:31;;;;;;;7.22;3.00;;;28.50;72.40;;;;;;6373297;22;20041;-85
2022/08/30 08:56:57;;;;;;;;;;;28.60;72.50;;;;;;6352230;22;19998;-90
2022/08/30 08:59:23;;;;;;;3.30;2.17;;;28.70;71.80;;;;;;6374495;22;19902;-89
2022/08/30 09:01:49;;;;;;;3.35;2.28;;;28.70;71.90;;;;;;6372446;22;20066;-89
2022/08/30 09:04:23;;;;;;;3.17;2.38;;;28.70;71.50;;;;;;6344267;22;20006;-85
2022/08/30 09:07:02;;;;;;;3.58;2.47;;;28.60;71.40;;;;;;6371924;22;20010;-85
2022/08/30 09:09:37;;;;;;;2.40;2.15;;;28.60;71.60;;;;;;6372340;22;20007;-85
2022/08/30 09:12:06;;;;;;;6.50;2.30;;;28.50;71.70;;;;;;6372438;22;20421;-85
2022/08/30 09:14:35;;;;;;;3.45;2.17;;;28.60;72.00;;;;;;6371535;22;20010;-85
2022/08/30 09:17:08;;;;;;;5.20;2.63;;;28.70;72.10;;;;;;6343466;22;20379;-86
2022/08/30 09:19:50;;;;;;;3.92;2.28;;;28.80;71.90;;;;;;6371281;22;20002;-87
2022/08/30 09:22:32;;;;;;;2.42;1.67;;;29.00;71.80;;;;;;6371014;22;19998;-84
2022/08/30 09:25:04;;;;;;;1.98;1.58;;;29.10;71.00;;;;;;6340926;22;20010;-85
2022/08/30 09:27:34;;;;;;;2.90;1.60;;;29.30;70.50;;;;;;6366137;22;20082;-85
2022/08/30 09:30:06;;;;;;;2.10;1.90;;;29.40;70.00;;;;;;6366827;22;19998;-81
2022/08/30 09:32:41;;;;;;;2.38;1.60;;;29.60;69.40;;;;;;6367147;22;20002;-83
2022/08/30 09:35:17;;;;;;;5.07;2.17;;;29.80;68.50;;;;;;6367604;22;20005;-84
2022/08/30 09:37:53;;;;;;;3.65;1.90;;;30.00;68.80;;;;;;6366492;22;20004;-85
2022/08/30 09:40:31;;;;;;;2.80;2.05;;;30.10;68.70;;;;;;6366405;22;20052;-83
2022/08/30 09:43:10;;;;;;;2.67;1.83;;;30.20;68.80;;;;;;6364181;22;20002;-84
2022/08/30 09:45:41;;;;;;;2.50;1.80;;;30.40;68.90;;;;;;6366294;22;20069;-84
2022/08/30 09:48:27;;;;;;;2.60;2.03;;;30.50;68.70;;;;;;6367899;22;20003;-83
2022/08/30 09:51:09;;;;;;;2.10;1.90;;;30.60;68.10;;;;;;6367836;22;20128;-83
2022/08/30 09:53:37;;;;;;;1.75;1.60;;;30.70;67.70;;;;;;6366590;22;20037;-84
2022/08/30 09:56:06;;;;;;;5.30;1.70;;;30.90;67.70;;;;;;6365412;22;20009;-79
2022/08/30 09:58:59;;;;;;;1.75;1.58;;;31.00;67.50;;;;;;6365854;22;20009;-79
2022/08/30 10:01:48;;;;;;;2.60;1.83;;;31.10;67.10;;;;;;6360044;22;20009;-81
2022/08/30 10:04:44;;;;;;;4.53;1.80;;;31.30;66.80;;;;;;6341680;22;20013;-85
2022/08/30 10:07:18;;;;;;;2.95;1.92;;;31.50;65.60;;;;;;6339566;22;20013;-77
2022/08/30 10:09:56;;;;;;;2.47;1.35;;;31.50;65.90;;;;;;6343060;22;20011;-84
2022/08/30 10:12:24;;;;;;;3.53;1.67;;;31.60;65.80;;;;;;6370283;22;20341;-86
2022/08/30 10:14:57;;;;;;;3.90;1.63;;;31.80;65.60;;;;;;6370172;22;20006;-81
2022/08/30 10:17:52;;;;;;;1.65;1.42;;;31.90;65.30;;;;;;6370589;22;20006;-81
2022/08/30 10:20:56;;;;;;;3.03;1.70;;;32.00;64.60;;;;;;6369519;22;20047;-81
2022/08/30 10:23:32;;;;;;;2.20;1.70;;;32.10;63.70;;;;;;6296069;22;20003;-83
2022/08/30 10:26:31;;;;;;;1.67;1.58;;;32.20;63.90;;;;;;6369274;22;20091;-82
2022/08/30 10:29:02;;;;;;;2.07;1.60;;;32.30;63.00;;;;;;6368986;22;20454;-82
2022/08/30 10:31:55;;;;;;;1.42;1.33;;;32.50;63.10;;;;;;6368608;22;20002;-83
2022/08/30 10:34:30;;;;;;;1.45;1.30;;;32.70;62.10;;;;;;6369312;22;20002;-82
2022/08/30 10:37:10;;;;;;;2.75;1.60;;;32.80;61.50;;;;;;6368601;22;20026;-82
2022/08/30 10:39:47;;;;;;;3.03;1.73;;;32.90;60.50;;;;;;6370582;22;20081;-83
2022/08/30 10:42:16;;;;;;;4.00;1.50;;;33.00;58.70;;;;;;6369068;22;20005;-82
2022/08/30 10:44:46;;;;;;;1.48;1.38;;;33.00;59.50;;;;;;6370019;22;20009;-82
2022/08/30 10:47:27;;;;;;;2.03;1.52;;;33.10;59.70;;;;;;6369642;22;20052;-82
2022/08/30 10:50:23;;;;;;;2.13;1.83;;;33.30;59.70;;;;;;6369550;22;20003;-81
2022/08/30 10:53:14;;;;;;;1.60;1.50;;;33.40;59.30;;;;;;6337138;22;20210;-82
2022/08/30 10:56:03;;;;;;;3.90;1.10;;;33.50;58.00;;;;;;6367031;22;20069;-82
2022/08/30 10:58:30;;;;;;;2.00;1.20;;;33.50;58.70;;;;;;6368576;22;20077;-82
2022/08/30 11:01:26;;;;;;;1.70;1.52;;;33.60;58.90;;;;;;6339012;22;20044;-82
2022/08/30 11:04:13;;;;;;;2.80;1.50;;;33.80;58.60;;;;;;6368870;22;20025;-83
2022/08/30 11:06:45;;;;;;;3.05;1.73;;;33.90;58.40;;;;;;6338954;22;20397;-81
2022/08/30 11:09:21;;;;;;;3.38;2.00;;;34.00;58.80;;;;;;6368422;22;20378;-82
2022/08/30 11:11:52;;;;;;;2.25;1.73;;;34.10;58.20;;;;;;6365897;22;20032;-83
2022/08/30 11:14:20;;;;;;;1.50;1.33;;;34.20;57.50;;;;;;6365190;22;20328;-82
2022/08/30 11:16:48;;;;;;;3.30;1.80;;;34.30;57.70;;;;;;6367736;22;19999;-83
2022/08/30 11:19:19;;;;;;;2.80;2.10;;;34.40;57.90;;;;;;6367439;22;19995;-83
2022/08/30 11:21:46;;;;;;;2.53;2.10;;;34.60;57.70;;;;;;6367722;22;20035;-82
2022/08/30 11:24:23;;;;;;;4.82;3.05;;;34.70;58.00;;;;;;6366748;22;20068;-82
2022/08/30 11:26:51;;;;;;;4.90;2.63;;;34.90;58.60;;;;;;6367923;22;20085;-81
2022/08/30 11:29:33;;;;;;;2.38;2.13;;;35.10;58.40;;;;;;6368304;22;20427;-81
2022/08/30 11:32:11;;;;;;;6.88;2.72;;;35.20;57.60;;;;;;6339408;22;20010;-81
2022/08/30 11:34:46;;;;;;;6.07;2.20;;;35.40;56.70;;;;;;6368110;22;19999;-83
2022/08/30 11:37:32;;;;;;;1.80;1.67;;;35.50;57.30;;;;;;6368434;22;20431;-86
2022/08/30 11:40:05;;;;;;;2.00;1.80;;;35.70;55.60;;;;;;6368065;22;20044;-83
2022/08/30 11:42:37;;;;;;;3.35;1.80;;;35.90;55.30;;;;;;6368191;22;20024;-84
2022/08/30 11:45:26;;;;;;;1.95;1.45;;;36.00;53.90;;;;;;6369435;22;20406;-83
2022/08/30 11:47:56;;;;;;;3.23;1.77;;;36.00;52.70;;;;;;6342490;22;20440;-84
2022/08/30 11:50:48;;;;;;;2.13;1.65;;;36.10;54.00;;;;;;6369397;22;20002;-84
2022/08/30 11:53:29;;;;;;;1.95;1.35;;;36.20;52.60;;;;;;6370374;22;20439;-84
2022/08/30 11:56:14;;;;;;;2.03;1.50;;;36.40;52.60;;;;;;6369215;22;19994;-85
2022/08/30 11:59:14;;;;;;;6.10;1.80;;;36.60;52.70;;;;;;6369253;22;20002;-81
2022/08/30 12:01:40;;;;;;;4.70;1.80;;;36.90;50.60;;;;;;6340533;22;20013;-82
2022/08/30 12:04:08;;;;;;;3.38;2.03;;;37.00;51.60;;;;;;6368360;22;20006;-83
2022/08/30 12:06:40;;;;;;;2.60;2.22;;;37.10;51.10;;;;;;6363424;22;19998;-84
2022/08/30 12:09:27;;;;;;;2.67;1.60;;;37.20;50.90;;;;;;6367610;22;20037;-81
2022/08/30 12:12:13;;;;;;;2.17;1.50;;;37.40;51.00;;;;;;6287848;22;20006;-83
2022/08/30 12:14:51;;;;;;;2.75;1.65;;;37.50;51.50;;;;;;6367097;22;20018;-84
2022/08/30 12:20:39;;;;;;;2.10;1.83;;;37.60;50.50;;;;;;6368520;22;20063;-83
2022/08/30 12:23:28;;;;;;;1.60;1.50;;;37.70;50.60;;;;;;6368653;22;19994;-84
2022/08/30 12:26:19;;;;;;;2.95;2.00;;;37.60;50.70;;;;;;6338298;22;20002;-85
2022/08/30 12:28:47;;;;;;;4.72;2.17;;;37.60;50.20;;;;;;6339190;22;20006;-85
2022/08/30 12:31:21;;;;;;;5.13;2.20;;;37.60;51.40;;;;;;6368061;22;20011;-84
2022/08/30 12:33:52;;;;;;;10.38;1.90;;;37.60;51.70;;;;;;6368959;22;20001;-85
2022/08/30 12:36:38;;;;;;;2.97;1.80;;;37.80;51.00;;;;;;6368983;22;20006;-85
2022/08/30 12:39:11;;;;;;;2.08;1.88;;;37.90;49.20;;;;;;6369010;22;20029;-83
2022/08/30 12:41:37;;;;;;;2.30;2.10;;;37.90;50.30;;;;;;6370939;22;20026;-84
2022/08/30 12:44:06;;;;;;;5.07;2.60;;;37.90;50.40;;;;;;6370223;22;20006;-85
2022/08/30 12:46:32;;;;;;;4.43;2.08;;;38.00;50.80;;;;;;6342730;22;20336;-86
2022/08/30 12:48:58;;;;;;;2.13;1.92;;;38.10;50.80;;;;;;6368881;22;20006;-85
2022/08/30 12:51:39;;;;;;;2.15;1.92;;;38.10;49.90;;;;;;6367893;22;20006;-85
2022/08/30 12:54:21;;;;;;;2.58;2.30;;;38.10;49.60;;;;;;6340462;22;19999;-84
2022/08/30 12:57:01;;;;;;;4.38;2.05;;;38.10;49.10;;;;;;6369805;22;20421;-84
2022/08/30 12:59:45;;;;;;;1.80;1.70;;;38.00;49.30;;;;;;6368432;22;20570;-87
2022/08/30 13:02:18;;;;;;;3.33;2.25;;;37.90;49.00;;;;;;6369624;22;20104;-84
2022/08/30 13:04:48;;;;;;;2.45;1.92;;;37.80;50.10;;;;;;6370670;22;20005;-85
2022/08/30 13:07:34;;;;;;;3.88;1.90;;;37.60;51.00;;;;;;6370408;22;20055;-84
2022/08/30 13:10:08;;;;;;;2.50;1.85;;;37.40;49.80;;;;;;6370070;22;19998;-91
2022/08/30 13:12:37;;;;;;;2.97;2.13;;;37.30;49.60;;;;;;6369760;22;19998;-86
2022/08/30 13:15:26;;;;;;;2.17;1.77;;;37.00;49.20;;;;;;6368760;22;20012;-89
2022/08/30 13:18:19;;;;;;;1.98;1.73;;;36.90;48.90;;;;;;6369831;22;19998;-88